Pagrindinis puslapis
METAR-TAF:

METAR-TAF

Oro uostai :

Olborgas, Danija

platuma: 57-06N, ilguma: 009-51E, Aukštis: 3 m

Dabartinis oras

Ataskaita buvo paskelbta 8 minutes, ne 02:33 UTC
Vėjas 3 kt iš Vakarų
Temperatūra 14°C
Drėgmė 100%
Slėgis 1025 hPa
Matomumas: 1200 m
rūkana

METAR: EKYT 240233Z AUTO 27003KT 1200 R08L/P1500N R26R/P1500N BR NCD 14/14 Q1025

Laikas: 04:41 (02:41 UTC)

Prognozė

Ataskaita buvo paskelbta 40 minutes, ne 02:01 UTC
Prognozė galioja nuo 24 metu 03 UTC su 25 metu 03 UTC
Vėjas 8 kt iš Vakarų/Pietvakarių
Matomumas 10 km arba daugiau
Mažai debesys ne aukštis 3000 ft
Laikinai
nuo 24 metu 03 UTC su 24 metu 08 UTC
Matomumas: 0100 m
ne aukštis 100 ft
rūkas
Tapsmas
nuo 24 metu 06 UTC su 24 metu 09 UTC
Vėjas 5 kt nuo kintamojo kryptimis
Tapsmas
nuo 24 metu 13 UTC su 24 metu 16 UTC
Vėjas 12 kt iš Rytų/Pietryčių

TAF: EKYT 240201Z 2403/2503 24008KT 9999 FEW030 TEMPO 2403/2408 0100 FG VV001 BECMG 2406/2409 VRB05KT BECMG 2413/2416 11012KT

Orai ataskaitas ir orų prognozės (METAR, TAF).

turimą stotys yra geltonos ir raudonos taškus žemėlapyje.

Perkelti pele per norėdami pamatyti stoties vardą.

Tada spustelėkite, norėdami matyti oro stebėjimo ir prognozės.

Norėdami pakeisti žemėlapį: spustelėkite ant žalios mygtukų su juodo kryžiaus žemyn,; žalią mygtuką su brūkšneliu, jei norite nutolinti; arba žalių rodyklių gretimoms žemėlapius.


METAR-TAF: